createdAt,value
2022-10-03T00:00:16.857Z,4.00
2022-10-03T00:03:18.040Z,4.00
2022-10-03T00:06:10.540Z,3.90
2022-10-03T00:09:06.696Z,3.90
2022-10-03T00:11:44.886Z,3.80
2022-10-03T00:14:27.836Z,3.90
2022-10-03T00:17:08.672Z,3.80
2022-10-03T00:19:45.835Z,3.70
2022-10-03T00:22:26.920Z,3.60
2022-10-03T00:25:08.271Z,3.60
2022-10-03T00:27:46.111Z,3.50
2022-10-03T00:30:23.706Z,3.40
2022-10-03T00:33:11.042Z,3.40
2022-10-03T00:35:59.208Z,3.30
2022-10-03T00:38:52.881Z,3.20
2022-10-03T00:41:56.870Z,3.20
2022-10-03T00:44:59.757Z,3.20
2022-10-03T00:48:03.175Z,3.20
2022-10-03T00:51:02.240Z,3.20
2022-10-03T00:54:03.350Z,3.10
2022-10-03T00:56:52.243Z,3.00
2022-10-03T00:59:35.940Z,3.00
2022-10-03T01:02:32.448Z,3.00
2022-10-03T01:05:14.950Z,3.00
2022-10-03T01:08:11.663Z,3.10
2022-10-03T01:10:53.959Z,3.10
2022-10-03T01:13:38.651Z,3.00
2022-10-03T01:16:21.375Z,2.90
2022-10-03T01:19:03.185Z,2.80
2022-10-03T01:21:44.060Z,2.60
2022-10-03T01:24:44.430Z,2.60
2022-10-03T01:27:21.507Z,2.70
2022-10-03T01:30:16.134Z,2.60
2022-10-03T01:32:53.564Z,2.50
2022-10-03T01:35:44.590Z,2.40
2022-10-03T01:38:22.610Z,2.40
2022-10-03T01:41:03.096Z,2.50
2022-10-03T01:43:44.244Z,2.50
2022-10-03T01:46:25.043Z,2.50
2022-10-03T01:49:01.493Z,2.50
2022-10-03T01:51:37.258Z,2.50
2022-10-03T01:54:19.190Z,2.50
2022-10-03T01:56:59.376Z,2.30
2022-10-03T01:59:39.859Z,2.20
2022-10-03T02:02:20.430Z,2.00
2022-10-03T02:05:00.876Z,1.90
2022-10-03T02:07:41.619Z,1.80
2022-10-03T02:10:22.351Z,1.80
2022-10-03T02:13:02.412Z,1.80
2022-10-03T02:15:42.522Z,1.80
2022-10-03T02:18:20.800Z,1.80
2022-10-03T02:20:54.926Z,1.80
2022-10-03T02:23:40.866Z,1.80
2022-10-03T02:26:40.313Z,2.00
2022-10-03T02:29:28.126Z,1.90
2022-10-03T02:32:27.955Z,1.80
2022-10-03T02:35:27.330Z,1.80
2022-10-03T02:38:20.599Z,1.70
2022-10-03T02:41:09.347Z,1.50
2022-10-03T02:44:20.575Z,1.70
2022-10-03T02:47:37.097Z,1.60
2022-10-03T02:50:49.661Z,1.40
2022-10-03T02:53:50.825Z,1.30
2022-10-03T02:57:00.999Z,1.20
2022-10-03T03:00:08.047Z,1.20
2022-10-03T03:03:10.688Z,1.20
2022-10-03T03:06:18.640Z,1.10
2022-10-03T03:09:30.060Z,1.00
2022-10-03T03:12:41.061Z,0.90
2022-10-03T03:15:50.389Z,0.80
2022-10-03T03:18:34.427Z,0.90
2022-10-03T03:21:26.040Z,0.90
2022-10-03T03:24:23.089Z,0.90
2022-10-03T03:27:25.513Z,0.90
2022-10-03T03:30:03.901Z,0.90
2022-10-03T03:32:47.950Z,0.80
2022-10-03T03:35:30.265Z,0.70
2022-10-03T03:38:15.792Z,0.70
2022-10-03T03:40:58.801Z,0.60
2022-10-03T03:43:52.934Z,0.60
2022-10-03T03:46:35.955Z,0.60
2022-10-03T03:49:33.336Z,0.50
2022-10-03T03:52:33.662Z,0.50
2022-10-03T03:55:29.025Z,0.50
2022-10-03T03:58:12.209Z,0.50
2022-10-03T04:00:55.854Z,0.50
2022-10-03T04:03:39.541Z,0.70
2022-10-03T04:06:29.752Z,0.60
2022-10-03T04:09:17.815Z,0.60
2022-10-03T04:12:01.129Z,0.50
2022-10-03T04:15:05.822Z,0.40
2022-10-03T04:18:14.243Z,0.50
2022-10-03T04:21:07.745Z,0.50
2022-10-03T04:24:11.002Z,0.50
2022-10-03T04:27:00.290Z,0.50
2022-10-03T04:29:55.935Z,0.60
2022-10-03T04:32:44.279Z,0.60
2022-10-03T04:35:36.615Z,0.60
2022-10-03T04:38:15.819Z,0.50
2022-10-03T04:40:56.452Z,0.50
2022-10-03T04:43:39.741Z,0.50
2022-10-03T04:46:30.257Z,0.40
2022-10-03T04:49:07.426Z,0.40
2022-10-03T04:51:56.236Z,0.40
2022-10-03T04:54:33.963Z,0.30
2022-10-03T04:57:11.088Z,0.60
2022-10-03T04:59:53.300Z,0.50
2022-10-03T05:02:46.716Z,0.30
2022-10-03T05:05:47.422Z,0.20
2022-10-03T05:08:35.729Z,0.10
2022-10-03T05:11:20.740Z,0.10
2022-10-03T05:14:13.048Z,0.20
2022-10-03T05:16:53.778Z,0.20
2022-10-03T05:19:56.095Z,0.10
2022-10-03T05:22:43.469Z,0.10
2022-10-03T05:25:28.506Z,0.10
2022-10-03T05:28:09.511Z,0.10
2022-10-03T05:30:50.689Z,-0.10
2022-10-03T05:33:35.929Z,-0.10
2022-10-03T05:36:24.271Z,-0.20
2022-10-03T05:39:36.702Z,-0.30
2022-10-03T05:42:27.899Z,-0.50
2022-10-03T05:45:04.795Z,-0.40
2022-10-03T05:47:49.633Z,-0.60
2022-10-03T05:51:04.782Z,-0.70
2022-10-03T05:54:21.853Z,-0.70
2022-10-03T05:57:23.024Z,-0.80
2022-10-03T06:00:15.611Z,-0.80
2022-10-03T06:03:18.073Z,-0.90
2022-10-03T06:06:08.592Z,-0.90
2022-10-03T06:08:55.356Z,-1.00
2022-10-03T06:11:50.285Z,-1.00
2022-10-03T06:14:39.909Z,-1.00
2022-10-03T06:17:33.462Z,-1.10
2022-10-03T06:20:24.449Z,-1.10
2022-10-03T06:23:24.271Z,-1.10
2022-10-03T06:26:22.920Z,-1.10
2022-10-03T06:29:27.576Z,-1.10
2022-10-03T06:32:28.049Z,-1.10
2022-10-03T06:35:23.073Z,-1.00
2022-10-03T06:38:31.831Z,-1.00
2022-10-03T06:41:31.195Z,-0.80
2022-10-03T06:44:16.110Z,-0.80
2022-10-03T06:47:16.700Z,-0.80
2022-10-03T06:50:17.308Z,-0.90
2022-10-03T06:53:34.636Z,-1.00
2022-10-03T06:56:50.170Z,-1.10
2022-10-03T06:59:53.088Z,-1.20
2022-10-03T07:02:58.390Z,-1.20
2022-10-03T07:06:04.879Z,-1.20
2022-10-03T07:09:02.507Z,-1.20
2022-10-03T07:11:57.008Z,-1.20
2022-10-03T07:15:01.761Z,-1.00
2022-10-03T07:17:46.557Z,-1.20
2022-10-03T07:20:57.690Z,-1.20
2022-10-03T07:23:51.127Z,-1.30
2022-10-03T07:27:03.386Z,-1.30
2022-10-03T07:30:05.386Z,-1.30
2022-10-03T07:33:18.023Z,-1.30
2022-10-03T07:36:25.225Z,-1.20
2022-10-03T07:39:18.814Z,-1.20
2022-10-03T07:42:11.040Z,-1.30
2022-10-03T07:45:17.035Z,-1.30
2022-10-03T07:48:21.943Z,-1.40
2022-10-03T07:51:16.609Z,-1.40
2022-10-03T07:54:22.719Z,-1.40
2022-10-03T07:57:22.555Z,-1.20
2022-10-03T08:00:14.556Z,-0.70
2022-10-03T08:03:19.590Z,-0.50
2022-10-03T08:06:10.777Z,-0.50
2022-10-03T08:09:13.038Z,-0.50
2022-10-03T08:12:15.808Z,-0.60
2022-10-03T08:15:05.529Z,-0.60
2022-10-03T08:18:02.144Z,-0.60
2022-10-03T08:20:46.078Z,-0.60
2022-10-03T08:23:57.583Z,-0.70
2022-10-03T08:26:40.254Z,-0.90
2022-10-03T08:29:29.901Z,-1.00
2022-10-03T08:32:36.534Z,-0.90
2022-10-03T08:35:39.331Z,-1.00
2022-10-03T08:38:32.650Z,-1.10
2022-10-03T08:41:34.701Z,-1.10
2022-10-03T08:44:30.710Z,-1.00
2022-10-03T08:47:30.754Z,-1.00
2022-10-03T08:50:38.630Z,-1.00
2022-10-03T08:53:54.630Z,-1.00
2022-10-03T08:56:29.628Z,-1.00
2022-10-03T08:59:29.065Z,-0.90
2022-10-03T09:02:28.920Z,-1.00
2022-10-03T09:05:39.890Z,-1.00
2022-10-03T09:08:51.087Z,-1.10
2022-10-03T09:12:08.224Z,-1.10
2022-10-03T09:14:58.014Z,-1.20
2022-10-03T09:18:00.232Z,-1.30
2022-10-03T09:21:07.628Z,-1.30
2022-10-03T09:24:03.426Z,-1.50
2022-10-03T09:27:08.803Z,-1.60
2022-10-03T09:30:17.562Z,-1.80
2022-10-03T09:33:23.427Z,-1.80
2022-10-03T09:36:09.835Z,-1.80
2022-10-03T09:39:06.586Z,-1.80
2022-10-03T09:42:21.075Z,-1.80
2022-10-03T09:45:28.160Z,-1.80
2022-10-03T09:48:29.842Z,-1.80
2022-10-03T09:51:24.209Z,-1.70
2022-10-03T09:54:29.771Z,-1.80
2022-10-03T09:57:30.724Z,-1.80
2022-10-03T10:00:19.940Z,-1.90
2022-10-03T10:03:22.441Z,-1.80
2022-10-03T10:06:24.777Z,-1.80
2022-10-03T10:09:21.573Z,-1.90
2022-10-03T10:12:27.262Z,-1.90
2022-10-03T10:15:24.949Z,-1.80
2022-10-03T10:18:43.406Z,-1.70
2022-10-03T10:21:48.645Z,-1.70
2022-10-03T10:25:01.214Z,-1.60
2022-10-03T10:28:21.770Z,-1.60
2022-10-03T10:31:28.488Z,-1.60
2022-10-03T10:37:21.223Z,-1.60
2022-10-03T10:40:11.113Z,-1.60
2022-10-03T10:43:15.633Z,-1.50
2022-10-03T10:46:22.207Z,-1.60
2022-10-03T10:49:33.498Z,-1.80
2022-10-03T10:52:38.804Z,-1.80
2022-10-03T10:55:58.563Z,-2.00
2022-10-03T10:59:24.337Z,-2.10
2022-10-03T11:02:32.859Z,-2.20
2022-10-03T11:05:44.066Z,-2.30
2022-10-03T11:09:01.388Z,-2.20
2022-10-03T11:12:18.621Z,-1.90
2022-10-03T11:15:41.770Z,-1.60
2022-10-03T11:19:11.097Z,-1.50
2022-10-03T11:22:19.368Z,-1.30
2022-10-03T11:25:34.347Z,-1.40
2022-10-03T11:29:12.124Z,-1.50
2022-10-03T11:32:22.707Z,-1.60
2022-10-03T11:35:30.919Z,-1.60
2022-10-03T11:38:10.494Z,-1.20
2022-10-03T11:40:57.383Z,-1.00
2022-10-03T11:44:12.872Z,-0.80
2022-10-03T11:47:19.507Z,-0.60
2022-10-03T11:50:15.945Z,-0.50
2022-10-03T11:53:07.207Z,-0.30
2022-10-03T11:55:44.813Z,-0.20
2022-10-03T11:58:35.151Z,-0.10
2022-10-03T12:01:26.597Z,0.00
2022-10-03T12:04:04.022Z,0.10
2022-10-03T12:07:17.338Z,0.10
2022-10-03T12:09:59.274Z,0.20
2022-10-03T12:12:37.667Z,0.40
2022-10-03T12:15:25.790Z,0.50
2022-10-03T12:18:05.779Z,0.60
2022-10-03T12:20:51.086Z,0.70
2022-10-03T12:23:34.110Z,0.70
2022-10-03T12:26:05.708Z,0.70
2022-10-03T12:28:40.938Z,0.90
2022-10-03T12:31:19.871Z,0.90
2022-10-03T12:33:56.214Z,0.90
2022-10-03T12:36:34.532Z,1.00
2022-10-03T12:39:21.516Z,1.10
2022-10-03T12:42:03.833Z,1.20
2022-10-03T12:44:49.058Z,1.30
2022-10-03T12:47:54.146Z,1.40
2022-10-03T12:50:39.110Z,1.40
2022-10-03T12:53:31.437Z,1.70
2022-10-03T12:56:19.463Z,1.80
2022-10-03T12:59:00.095Z,1.90
2022-10-03T13:01:43.229Z,2.00
2022-10-03T13:04:23.741Z,2.20
2022-10-03T13:07:17.395Z,2.40
2022-10-03T13:10:08.889Z,2.60
2022-10-03T13:12:46.588Z,2.70
2022-10-03T13:15:46.744Z,2.90
2022-10-03T13:18:31.759Z,3.10
2022-10-03T13:21:33.502Z,3.40
2022-10-03T13:24:07.672Z,3.50
2022-10-03T13:26:52.082Z,3.70
2022-10-03T13:29:27.601Z,3.90
2022-10-03T13:32:09.643Z,4.10
2022-10-03T13:34:59.151Z,4.20
2022-10-03T13:37:37.617Z,4.40
2022-10-03T13:40:16.493Z,4.50
2022-10-03T13:42:54.144Z,4.70
2022-10-03T13:45:27.982Z,4.80
2022-10-03T13:48:02.683Z,5.00
2022-10-03T13:50:41.840Z,5.10
2022-10-03T13:53:17.574Z,5.20
2022-10-03T13:55:58.191Z,5.30
2022-10-03T13:58:48.077Z,5.50
2022-10-03T14:01:40.208Z,5.80
2022-10-03T14:05:01.140Z,6.00
2022-10-03T14:07:44.614Z,6.20
2022-10-03T14:10:43.154Z,6.40
2022-10-03T14:13:25.183Z,6.60
2022-10-03T14:16:01.314Z,6.80
2022-10-03T14:18:48.027Z,6.90
2022-10-03T14:21:53.553Z,7.10
2022-10-03T14:24:37.367Z,7.20
2022-10-03T14:27:18.793Z,7.40
2022-10-03T14:30:04.188Z,7.50
2022-10-03T14:32:47.641Z,7.60
2022-10-03T14:35:41.112Z,7.70
2022-10-03T14:38:25.512Z,7.90
2022-10-03T14:41:06.199Z,8.10
2022-10-03T14:43:41.027Z,8.30
2022-10-03T14:46:14.740Z,8.30
2022-10-03T14:48:50.608Z,8.40
2022-10-03T14:51:25.771Z,8.60
2022-10-03T14:54:03.225Z,8.80
2022-10-03T14:56:37.076Z,9.10
2022-10-03T14:59:15.692Z,9.20
2022-10-03T15:01:54.307Z,9.40
2022-10-03T15:04:31.212Z,9.50
2022-10-03T15:07:03.329Z,9.70
2022-10-03T15:09:44.355Z,9.70
2022-10-03T15:12:21.340Z,9.90
2022-10-03T15:14:59.808Z,10.00
2022-10-03T15:17:33.776Z,10.10
2022-10-03T15:20:05.802Z,10.30
2022-10-03T15:22:38.451Z,10.30
2022-10-03T15:25:13.302Z,10.40
2022-10-03T15:27:45.037Z,10.60
2022-10-03T15:30:30.648Z,10.80
2022-10-03T15:33:20.215Z,10.90
2022-10-03T15:36:00.593Z,11.00
2022-10-03T15:38:37.598Z,11.20
2022-10-03T15:41:14.714Z,11.40
2022-10-03T15:43:55.094Z,11.40
2022-10-03T15:46:34.271Z,11.50
2022-10-03T15:49:10.537Z,11.60
2022-10-03T15:51:41.011Z,11.80
2022-10-03T15:54:15.253Z,11.90
2022-10-03T15:56:47.280Z,12.10
2022-10-03T15:59:24.670Z,12.30
2022-10-03T16:01:56.655Z,12.60
2022-10-03T16:04:30.680Z,12.80
2022-10-03T16:07:05.991Z,13.10
2022-10-03T16:09:47.965Z,13.50
2022-10-03T16:12:45.605Z,14.00
2022-10-03T16:15:23.244Z,14.50
2022-10-03T16:17:57.490Z,15.00
2022-10-03T16:20:35.540Z,15.30
2022-10-03T16:23:16.522Z,15.70
2022-10-03T16:25:56.173Z,16.20
2022-10-03T16:28:31.281Z,16.40
2022-10-03T16:31:05.547Z,16.60
2022-10-03T16:33:39.347Z,16.90
2022-10-03T16:36:13.725Z,16.90
2022-10-03T16:38:47.540Z,17.10
2022-10-03T16:41:23.556Z,17.20
2022-10-03T16:44:02.416Z,17.50
2022-10-03T16:46:36.291Z,17.30
2022-10-03T16:49:30.277Z,17.70
2022-10-03T16:52:06.807Z,17.90
2022-10-03T16:54:37.283Z,18.10
2022-10-03T16:57:14.457Z,18.10
2022-10-03T16:59:49.465Z,18.20
2022-10-03T17:02:23.307Z,17.80
2022-10-03T17:04:57.268Z,17.80
2022-10-03T17:07:32.743Z,17.70
2022-10-03T17:10:04.069Z,18.10
2022-10-03T17:12:39.692Z,17.80
2022-10-03T17:15:17.776Z,17.90
2022-10-03T17:17:57.962Z,18.20
2022-10-03T17:20:41.773Z,18.60
2022-10-03T17:23:20.262Z,18.80
2022-10-03T17:26:00.426Z,19.00
2022-10-03T17:28:37.335Z,19.20
2022-10-03T17:31:16.216Z,19.10
2022-10-03T17:33:51.698Z,19.00
2022-10-03T17:37:02.173Z,19.20
2022-10-03T17:39:52.276Z,19.20
2022-10-03T17:42:35.588Z,19.40
2022-10-03T17:45:37.591Z,19.10
2022-10-03T17:48:19.004Z,19.30
2022-10-03T17:50:58.766Z,19.30
2022-10-03T17:53:31.584Z,19.30
2022-10-03T17:56:09.768Z,19.50
2022-10-03T17:58:43.540Z,19.80
2022-10-03T18:01:17.549Z,20.00
2022-10-03T18:03:52.050Z,19.90
2022-10-03T18:06:40.697Z,20.20
2022-10-03T18:09:23.422Z,20.20
2022-10-03T18:12:01.226Z,20.10
2022-10-03T18:14:42.683Z,19.70
2022-10-03T18:17:19.356Z,19.70
2022-10-03T18:20:11.046Z,19.80
2022-10-03T18:22:47.968Z,19.80
2022-10-03T18:25:45.572Z,19.90
2022-10-03T18:28:28.153Z,19.60
2022-10-03T18:31:01.795Z,19.40
2022-10-03T18:33:34.853Z,19.50
2022-10-03T18:36:12.575Z,19.40
2022-10-03T18:38:46.184Z,19.30
2022-10-03T18:41:17.631Z,19.70
2022-10-03T18:43:59.424Z,19.70
2022-10-03T18:46:32.281Z,19.80
2022-10-03T18:49:37.565Z,19.70
2022-10-03T18:52:01.197Z,19.20
2022-10-03T18:54:43.364Z,19.10
2022-10-03T18:57:22.184Z,19.10
2022-10-03T19:00:01.888Z,19.20
2022-10-03T19:02:38.208Z,19.10
2022-10-03T19:05:17.359Z,19.10
2022-10-03T19:07:53.170Z,19.10
2022-10-03T19:13:19.230Z,18.90
2022-10-03T19:16:30.121Z,18.90
2022-10-03T19:19:09.574Z,18.80
2022-10-03T19:21:42.388Z,18.80
2022-10-03T19:24:18.140Z,18.60
2022-10-03T19:26:52.864Z,18.10
2022-10-03T19:29:26.977Z,18.10
2022-10-03T19:32:03.883Z,18.20
2022-10-03T19:34:40.025Z,18.20
2022-10-03T19:37:14.988Z,18.40
2022-10-03T19:39:46.020Z,18.50
2022-10-03T19:42:34.682Z,18.70
2022-10-03T19:45:07.211Z,18.90
2022-10-03T19:47:41.717Z,18.90
2022-10-03T19:50:21.078Z,18.60
2022-10-03T19:52:51.593Z,18.40
2022-10-03T19:55:26.218Z,18.60
2022-10-03T19:57:58.468Z,18.70
2022-10-03T20:00:33.433Z,18.60
2022-10-03T20:03:16.802Z,18.60
2022-10-03T20:05:54.432Z,18.40
2022-10-03T20:08:28.126Z,18.60
2022-10-03T20:11:20.186Z,18.40
2022-10-03T20:13:51.801Z,18.40
2022-10-03T20:16:26.204Z,18.70
2022-10-03T20:19:00.301Z,18.70
2022-10-03T20:21:34.134Z,18.90
2022-10-03T20:24:10.219Z,19.00
2022-10-03T20:26:46.616Z,19.10
2022-10-03T20:29:26.100Z,19.20
2022-10-03T20:32:04.256Z,18.90
2022-10-03T20:34:36.842Z,18.70
2022-10-03T20:37:24.394Z,18.60
2022-10-03T20:39:59.710Z,18.40
2022-10-03T20:42:33.651Z,18.20
2022-10-03T20:45:06.365Z,18.10
2022-10-03T20:47:50.980Z,17.90
2022-10-03T20:50:29.220Z,18.00
2022-10-03T20:53:02.663Z,18.10
2022-10-03T20:55:35.526Z,18.10
2022-10-03T20:58:21.281Z,18.10
2022-10-03T21:00:54.962Z,18.10
2022-10-03T21:03:31.855Z,18.20
2022-10-03T21:06:04.174Z,18.10
2022-10-03T21:08:39.195Z,18.20
2022-10-03T21:11:22.477Z,18.10
2022-10-03T21:13:58.142Z,18.00
2022-10-03T21:16:32.709Z,18.00
2022-10-03T21:19:06.181Z,17.90
2022-10-03T21:21:42.916Z,17.90
2022-10-03T21:24:18.324Z,17.90
2022-10-03T21:26:50.934Z,17.80
2022-10-03T21:29:55.758Z,17.50
2022-10-03T21:32:40.887Z,17.30
2022-10-03T21:35:23.153Z,16.90
2022-10-03T21:38:00.016Z,16.40
2022-10-03T21:40:44.920Z,15.80
2022-10-03T21:43:26.691Z,15.30
2022-10-03T21:46:06.302Z,14.70
2022-10-03T21:48:49.577Z,14.30
2022-10-03T21:51:29.049Z,14.00
2022-10-03T21:54:13.060Z,13.60
2022-10-03T21:57:09.520Z,13.40
2022-10-03T22:00:07.213Z,13.10
2022-10-03T22:02:48.644Z,12.90
2022-10-03T22:05:28.788Z,12.60
2022-10-03T22:08:00.554Z,12.40
2022-10-03T22:10:34.324Z,12.20
2022-10-03T22:13:10.711Z,12.00
2022-10-03T22:15:48.390Z,11.90
2022-10-03T22:18:20.915Z,11.60
2022-10-03T22:20:56.968Z,11.40
2022-10-03T22:23:41.370Z,11.20
2022-10-03T22:26:20.441Z,11.00
2022-10-03T22:28:58.952Z,10.80
2022-10-03T22:31:41.234Z,10.50
2022-10-03T22:34:25.133Z,10.20
2022-10-03T22:36:55.300Z,9.90
2022-10-03T22:39:27.481Z,9.60
2022-10-03T22:42:03.702Z,9.40
2022-10-03T22:44:38.972Z,9.20
2022-10-03T22:47:13.925Z,9.00
2022-10-03T22:49:47.074Z,9.20
2022-10-03T22:52:23.593Z,9.10
2022-10-03T22:54:56.833Z,8.90
2022-10-03T22:57:28.168Z,8.60
2022-10-03T23:00:03.203Z,8.30
2022-10-03T23:02:35.793Z,8.10
2022-10-03T23:05:11.009Z,7.80
2022-10-03T23:07:53.947Z,7.60
2022-10-03T23:10:51.609Z,7.30
2022-10-03T23:13:30.149Z,7.10
2022-10-03T23:16:09.801Z,6.90
2022-10-03T23:19:04.556Z,6.70
2022-10-03T23:21:34.802Z,6.60
2022-10-03T23:24:12.390Z,6.50
2022-10-03T23:27:11.688Z,6.30
2022-10-03T23:29:43.475Z,6.20
2022-10-03T23:32:24.734Z,6.10
2022-10-03T23:35:18.348Z,6.10
2022-10-03T23:37:49.461Z,6.10
2022-10-03T23:40:47.250Z,6.00
2022-10-03T23:43:33.601Z,5.90
2022-10-03T23:46:08.532Z,5.80
2022-10-03T23:48:46.367Z,5.70
2022-10-03T23:51:21.111Z,5.50
2022-10-03T23:53:53.198Z,5.50
2022-10-03T23:56:42.860Z,5.70
2022-10-03T23:59:21.357Z,5.80
